Time;durP1;ratioP1;P1;durP2;ratioP2;P2;SDS_P1;SDS_P2;PMS_P1;PMS_P2;Temp;Humidity;BMP_temperature;BMP_pressure;BME280_temperature;BME280_humidity;BME280_pressure;Samples;Min_cycle;Max_cycle;Signal;HPM_P1;HPM_P2
2021/08/28 00:01:16;;;;;;;;;;;15.10;92.00;;;;;;5016286;28;19917;-60
2021/08/28 00:03:42;;;;;;;;;;;15.10;92.00;;;;;;5034425;28;19924;-60
2021/08/28 00:06:07;;;;;;;;;;;15.10;92.10;;;;;;5034255;28;19917;-59
2021/08/28 00:08:33;;;;;;;;;;;15.10;92.10;;;;;;5033486;28;19944;-60
2021/08/28 00:10:59;;;;;;;;;;;15.10;92.20;;;;;;5034208;28;19917;-60
2021/08/28 00:13:24;;;;;;;;;;;15.10;92.20;;;;;;5034142;28;19917;-60
2021/08/28 00:15:50;;;;;;;;;;;15.10;92.20;;;;;;5033842;28;19921;-59
2021/08/28 00:18:15;;;;;;;;;;;15.10;92.30;;;;;;5033791;28;19924;-60
2021/08/28 00:20:41;;;;;;;;;;;15.20;92.30;;;;;;5033733;28;19924;-65
2021/08/28 00:23:07;;;;;;;;;;;15.10;92.40;;;;;;5016230;28;19999;-59
2021/08/28 00:25:33;;;;;;;;;;;15.20;92.40;;;;;;5034023;28;20393;-60
2021/08/28 00:27:58;;;;;;;;;;;15.20;92.40;;;;;;5015561;28;19921;-59
2021/08/28 00:30:24;;;;;;;;;;;15.20;92.50;;;;;;5033819;28;19917;-59
2021/08/28 00:32:49;;;;;;;;;;;15.20;92.50;;;;;;5015961;28;20365;-59
2021/08/28 00:35:15;;;;;;;;;;;15.20;92.50;;;;;;5015639;28;19929;-60
2021/08/28 00:37:41;;;;;;;;;;;15.20;92.50;;;;;;5033475;28;19936;-60
2021/08/28 00:40:07;;;;;;;;;;;15.20;92.50;;;;;;4999732;28;19967;-59
2021/08/28 00:42:43;;;;;;;;;;;15.20;92.50;;;;;;5032047;28;19929;-60
2021/08/28 00:45:10;;;;;;;;;;;15.20;92.50;;;;;;5033562;28;19917;-59
2021/08/28 00:47:35;;;;;;;;;;;15.20;92.60;;;;;;5015201;28;19917;-60
2021/08/28 00:50:01;;;;;;;;;;;15.20;92.60;;;;;;5015697;28;19974;-60
2021/08/28 00:52:28;;;;;;;;;;;15.20;92.70;;;;;;5015722;28;19932;-59
2021/08/28 00:54:53;;;;;;;;;;;15.20;92.70;;;;;;5015432;28;19924;-60
2021/08/28 00:57:20;;;;;;;;;;;15.20;92.70;;;;;;5033201;28;20296;-60
2021/08/28 00:59:48;;;;;;;;;;;15.20;92.80;;;;;;5015172;28;19952;-59
2021/08/28 01:02:16;;;;;;;;;;;15.20;92.80;;;;;;5015411;28;19972;-59
2021/08/28 01:04:47;;;;;;;;;;;15.20;92.80;;;;;;5015830;28;19924;-58
2021/08/28 01:07:26;;;;;;;;;;;15.30;92.90;;;;;;5015507;28;19917;-58
2021/08/28 01:10:14;;;;;;;;;;;15.30;92.90;;;;;;5032726;28;19947;-59
2021/08/28 01:12:57;;;;;;;;;;;15.30;92.90;;;;;;5033168;28;20076;-59
2021/08/28 01:15:24;;;;;;;;;;;15.30;93.00;;;;;;5014886;28;19918;-59
2021/08/28 01:17:51;;;;;;;;;;;15.30;93.00;;;;;;5014836;28;19921;-59
2021/08/28 01:20:47;;;;;;;;;;;15.30;93.00;;;;;;5015041;28;19956;-59
2021/08/28 01:23:12;;;;;;;;;;;15.40;93.00;;;;;;4978328;28;20009;-59
2021/08/28 01:25:54;;;;;;;;;;;15.30;93.00;;;;;;5014831;28;19925;-59
2021/08/28 01:28:32;;;;;;;;;;;15.30;93.00;;;;;;5014616;28;19928;-60
2021/08/28 01:31:00;;;;;;;;;;;15.40;93.00;;;;;;5015029;28;19917;-59
2021/08/28 01:33:26;;;;;;;;;;;15.30;93.00;;;;;;5032205;28;19917;-60
2021/08/28 01:35:53;;;;;;;;;;;15.30;93.00;;;;;;5014795;28;19917;-59
2021/08/28 01:38:37;;;;;;;;;;;15.30;93.00;;;;;;5000450;28;19918;-59
2021/08/28 01:41:15;;;;;;;;;;;15.30;93.10;;;;;;5031268;28;19925;-59
2021/08/28 01:43:42;;;;;;;;;;;15.30;93.10;;;;;;5014111;28;20278;-60
2021/08/28 01:46:07;;;;;;;;;;;15.20;93.10;;;;;;5032475;28;19924;-60
2021/08/28 01:48:34;;;;;;;;;;;15.30;93.10;;;;;;5013684;28;19952;-59
2021/08/28 01:51:01;;;;;;;;;;;15.30;93.20;;;;;;5014564;28;19924;-59
2021/08/28 01:53:30;;;;;;;;;;;15.20;93.20;;;;;;5014400;28;20433;-59
2021/08/28 01:55:56;;;;;;;;;;;15.20;93.20;;;;;;5014325;28;19996;-59
2021/08/28 01:58:22;;;;;;;;;;;15.20;93.20;;;;;;5030770;28;20297;-59
2021/08/28 02:01:00;;;;;;;;;;;15.20;93.10;;;;;;5014267;28;19917;-59
2021/08/28 02:03:38;;;;;;;;;;;15.20;93.10;;;;;;5014342;28;20388;-59
2021/08/28 02:06:06;;;;;;;;;;;15.10;93.20;;;;;;5013978;28;19960;-60
2021/08/28 02:08:52;;;;;;;;;;;15.10;93.20;;;;;;5014216;28;19921;-59
2021/08/28 02:11:23;;;;;;;;;;;15.10;93.20;;;;;;5030183;28;19924;-59
2021/08/28 02:13:52;;;;;;;;;;;15.10;93.30;;;;;;5014214;28;20386;-59
2021/08/28 02:16:22;;;;;;;;;;;15.00;93.20;;;;;;4997553;28;19924;-59
2021/08/28 02:19:08;;;;;;;;;;;15.00;93.20;;;;;;4997881;28;20332;-60
2021/08/28 02:21:56;;;;;;;;;;;15.00;93.30;;;;;;5031369;28;19940;-60
2021/08/28 02:24:33;;;;;;;;;;;15.00;93.30;;;;;;5014245;28;19921;-59
2021/08/28 02:27:09;;;;;;;;;;;14.90;93.30;;;;;;5014848;28;20012;-59
2021/08/28 02:30:08;;;;;;;;;;;14.90;93.20;;;;;;5016077;28;19925;-59
2021/08/28 02:32:51;;;;;;;;;;;14.80;93.20;;;;;;4995920;28;20356;-59
2021/08/28 02:35:18;;;;;;;;;;;14.80;93.20;;;;;;5014120;28;19917;-60
2021/08/28 02:37:44;;;;;;;;;;;14.80;93.20;;;;;;5013410;28;20413;-60
2021/08/28 02:40:11;;;;;;;;;;;14.70;93.30;;;;;;5030458;28;20265;-59
2021/08/28 02:42:41;;;;;;;;;;;14.70;93.30;;;;;;5014296;28;19921;-69
2021/08/28 02:45:08;;;;;;;;;;;14.70;93.40;;;;;;5013519;28;19924;-69
2021/08/28 02:47:35;;;;;;;;;;;14.70;93.50;;;;;;5013477;28;20375;-70
2021/08/28 02:50:01;;;;;;;;;;;14.70;93.50;;;;;;5013244;28;19921;-68
2021/08/28 02:52:49;;;;;;;;;;;14.70;93.40;;;;;;5013859;28;19923;-69
2021/08/28 02:55:16;;;;;;;;;;;14.70;93.40;;;;;;5013365;28;19921;-69
2021/08/28 02:57:43;;;;;;;;;;;14.70;93.40;;;;;;5013481;28;19917;-69
2021/08/28 03:00:10;;;;;;;;;;;14.60;93.30;;;;;;4997657;28;19924;-69
2021/08/28 03:02:36;;;;;;;;;;;14.50;93.20;;;;;;5013387;28;19925;-69
2021/08/28 03:05:01;;;;;;;;;;;14.50;93.30;;;;;;5014648;28;19971;-69
2021/08/28 03:07:27;;;;;;;;;;;14.40;93.40;;;;;;5033673;28;19924;-69
2021/08/28 03:09:54;;;;;;;;;;;14.40;93.60;;;;;;5017563;28;19932;-69
2021/08/28 03:12:20;;;;;;;;;;;14.40;93.60;;;;;;5017591;28;20420;-69
2021/08/28 03:14:45;;;;;;;;;;;14.50;93.70;;;;;;5034874;28;20165;-68
2021/08/28 03:17:13;;;;;;;;;;;14.50;93.50;;;;;;5034872;28;19982;-69
2021/08/28 03:19:42;;;;;;;;;;;14.50;93.40;;;;;;5001133;28;20338;-68
2021/08/28 03:22:10;;;;;;;;;;;14.40;93.40;;;;;;5017367;28;19917;-69
2021/08/28 03:24:37;;;;;;;;;;;14.30;93.50;;;;;;5000970;28;20293;-69
2021/08/28 03:27:13;;;;;;;;;;;14.30;93.70;;;;;;5016553;28;20389;-68
2021/08/28 03:29:39;;;;;;;;;;;14.30;93.70;;;;;;5017145;28;19921;-68
2021/08/28 03:32:05;;;;;;;;;;;14.30;93.80;;;;;;5016690;28;19913;-68
2021/08/28 03:34:33;;;;;;;;;;;14.40;93.80;;;;;;5017089;28;19917;-68
2021/08/28 03:36:59;;;;;;;;;;;14.40;93.90;;;;;;5016953;28;19917;-69
2021/08/28 03:39:25;;;;;;;;;;;14.40;93.90;;;;;;5034230;28;20031;-68
2021/08/28 03:41:52;;;;;;;;;;;14.40;93.90;;;;;;5000708;28;20336;-68
2021/08/28 03:44:19;;;;;;;;;;;14.50;94.00;;;;;;5016975;28;19921;-69
2021/08/28 03:46:46;;;;;;;;;;;14.40;93.90;;;;;;5016258;28;19971;-68
2021/08/28 03:49:13;;;;;;;;;;;14.50;94.00;;;;;;5033304;28;19921;-69
2021/08/28 03:51:38;;;;;;;;;;;14.50;94.00;;;;;;5016448;28;19917;-68
2021/08/28 03:54:04;;;;;;;;;;;14.50;94.00;;;;;;5016894;28;19944;-68
2021/08/28 03:56:30;;;;;;;;;;;14.50;94.00;;;;;;5016746;28;19956;-68
2021/08/28 03:58:55;;;;;;;;;;;14.60;94.00;;;;;;5016173;28;20377;-68
2021/08/28 04:01:21;;;;;;;;;;;14.60;94.00;;;;;;5016725;28;19918;-69
2021/08/28 04:03:48;;;;;;;;;;;14.60;94.10;;;;;;5001232;28;19917;-68
2021/08/28 04:06:15;;;;;;;;;;;14.60;94.10;;;;;;5019232;28;19921;-68
2021/08/28 04:08:46;;;;;;;;;;;14.60;94.10;;;;;;5016768;28;20396;-68
2021/08/28 04:11:12;;;;;;;;;;;14.60;94.10;;;;;;5016116;28;20292;-69
2021/08/28 04:13:37;;;;;;;;;;;14.60;94.10;;;;;;5034184;28;19921;-69
2021/08/28 04:16:04;;;;;;;;;;;14.60;94.20;;;;;;5015862;28;20336;-69
2021/08/28 04:18:37;;;;;;;;;;;14.60;94.20;;;;;;5033071;28;19917;-68
2021/08/28 04:21:21;;;;;;;;;;;14.60;94.20;;;;;;5002033;28;19917;-68
2021/08/28 04:23:46;;;;;;;;;;;14.70;94.20;;;;;;5016321;28;20270;-69
2021/08/28 04:26:15;;;;;;;;;;;14.70;94.20;;;;;;5034081;28;19921;-68
2021/08/28 04:28:41;;;;;;;;;;;14.70;94.20;;;;;;5015557;28;19921;-68
2021/08/28 04:31:09;;;;;;;;;;;14.70;94.20;;;;;;5015522;28;21273;-69
2021/08/28 04:33:34;;;;;;;;;;;14.70;94.20;;;;;;5015472;28;19924;-68
2021/08/28 04:36:01;;;;;;;;;;;14.70;94.20;;;;;;5016105;28;19924;-68
2021/08/28 04:38:27;;;;;;;;;;;14.70;94.20;;;;;;4999461;28;20412;-68
2021/08/28 04:40:54;;;;;;;;;;;14.70;94.20;;;;;;5015682;28;19967;-68
2021/08/28 04:43:23;;;;;;;;;;;14.70;94.10;;;;;;5015823;28;19956;-68
2021/08/28 04:46:08;;;;;;;;;;;14.70;94.00;;;;;;5024722;28;19983;-68
2021/08/28 04:48:41;;;;;;;;;;;14.60;94.10;;;;;;5000351;28;20304;-68
2021/08/28 04:51:33;;;;;;;;;;;14.60;94.10;;;;;;5016655;28;19955;-68
2021/08/28 04:53:59;;;;;;;;;;;14.60;94.20;;;;;;4999430;28;19917;-68
2021/08/28 04:56:24;;;;;;;;;;;14.60;94.20;;;;;;4998824;28;20038;-68
2021/08/28 04:58:51;;;;;;;;;;;14.60;94.30;;;;;;5015360;28;19949;-70
2021/08/28 05:01:35;;;;;;;;;;;14.60;94.30;;;;;;5032987;28;20297;-68
2021/08/28 05:04:17;;;;;;;;;;;14.60;94.30;;;;;;5015586;28;19917;-69
2021/08/28 05:06:44;;;;;;;;;;;14.60;94.40;;;;;;5014723;28;19917;-68
2021/08/28 05:09:12;;;;;;;;;;;14.60;94.40;;;;;;5015280;28;19917;-69
2021/08/28 05:11:38;;;;;;;;;;;14.70;94.40;;;;;;5033197;28;19924;-68
2021/08/28 05:14:04;;;;;;;;;;;14.60;94.40;;;;;;5015371;28;19924;-68
2021/08/28 05:16:30;;;;;;;;;;;14.70;94.40;;;;;;5015305;28;19917;-68
2021/08/28 05:18:55;;;;;;;;;;;14.70;94.40;;;;;;5014597;28;19971;-68
2021/08/28 05:21:23;;;;;;;;;;;14.70;94.40;;;;;;5015169;28;19917;-68
2021/08/28 05:24:07;;;;;;;;;;;14.70;94.40;;;;;;5017516;28;19924;-68
2021/08/28 05:26:43;;;;;;;;;;;14.80;94.50;;;;;;5014930;28;19953;-68
2021/08/28 05:29:09;;;;;;;;;;;14.80;94.50;;;;;;5014626;28;19964;-68
2021/08/28 05:31:34;;;;;;;;;;;14.80;94.50;;;;;;5014900;28;19921;-69
2021/08/28 05:34:02;;;;;;;;;;;14.80;94.50;;;;;;5014840;28;19917;-68
2021/08/28 05:36:47;;;;;;;;;;;14.80;94.50;;;;;;5031956;28;19918;-68
2021/08/28 05:39:33;;;;;;;;;;;14.80;94.50;;;;;;5032490;28;19917;-70
2021/08/28 05:41:58;;;;;;;;;;;14.90;94.60;;;;;;5014147;28;19924;-68
2021/08/28 05:44:24;;;;;;;;;;;14.90;94.60;;;;;;5014768;28;19975;-69
2021/08/28 05:46:50;;;;;;;;;;;15.00;94.60;;;;;;5014476;28;19929;-69
2021/08/28 05:49:19;;;;;;;;;;;15.00;94.60;;;;;;5014505;28;20011;-68
2021/08/28 05:51:52;;;;;;;;;;;15.00;94.70;;;;;;5014809;28;19921;-69
2021/08/28 05:54:18;;;;;;;;;;;15.10;94.80;;;;;;5014246;28;19917;-68
2021/08/28 05:56:45;;;;;;;;;;;15.20;94.90;;;;;;5014249;28;20400;-70
2021/08/28 05:59:11;;;;;;;;;;;15.30;94.90;;;;;;5013902;28;19917;-68
2021/08/28 06:01:36;;;;;;;;;;;15.40;94.80;;;;;;5014410;28;19924;-68
2021/08/28 06:04:02;;;;;;;;;;;15.50;94.80;;;;;;5032174;28;19995;-68
2021/08/28 06:06:47;;;;;;;;;;;15.50;94.60;;;;;;5031456;28;20004;-68
2021/08/28 06:09:32;;;;;;;;;;;15.50;94.50;;;;;;5032125;28;19929;-68
2021/08/28 06:12:16;;;;;;;;;;;15.50;94.50;;;;;;5031190;28;19924;-68
2021/08/28 06:15:07;;;;;;;;;;;15.60;94.50;;;;;;5031501;28;19992;-68
2021/08/28 06:17:44;;;;;;;;;;;15.60;94.60;;;;;;5013843;28;19917;-68
2021/08/28 06:20:10;;;;;;;;;;;15.70;94.80;;;;;;4997436;28;19917;-68
2021/08/28 06:22:37;;;;;;;;;;;15.80;94.80;;;;;;5013979;28;20475;-68
2021/08/28 06:25:04;;;;;;;;;;;15.90;94.70;;;;;;5014166;28;19917;-68
2021/08/28 06:27:30;;;;;;;;;;;16.00;94.80;;;;;;5030850;28;19920;-68
2021/08/28 06:29:58;;;;;;;;;;;16.20;95.10;;;;;;5013343;28;19925;-68
2021/08/28 06:32:24;;;;;;;;;;;16.50;95.00;;;;;;5013380;28;19917;-68
2021/08/28 06:34:50;;;;;;;;;;;17.60;95.20;;;;;;5031782;28;19921;-68
2021/08/28 06:37:20;;;;;;;;;;;16.80;94.70;;;;;;5013539;28;19971;-68
2021/08/28 06:40:18;;;;;;;;;;;16.90;94.40;;;;;;5007493;28;19924;-68
2021/08/28 06:43:03;;;;;;;;;;;16.90;94.50;;;;;;5031268;28;19929;-68
2021/08/28 06:45:57;;;;;;;;;;;16.90;94.00;;;;;;5030821;28;19963;-68
2021/08/28 06:48:46;;;;;;;;;;;16.80;93.90;;;;;;5030485;28;20339;-68
2021/08/28 06:51:30;;;;;;;;;;;16.80;93.90;;;;;;5031395;28;19924;-68
2021/08/28 06:54:28;;;;;;;;;;;16.80;93.80;;;;;;5018954;28;20292;-68
2021/08/28 06:57:14;;;;;;;;;;;16.80;93.80;;;;;;5030403;28;19996;-68
2021/08/28 07:00:00;;;;;;;;;;;16.80;93.80;;;;;;5024004;28;20182;-68
2021/08/28 07:02:44;;;;;;;;;;;16.90;93.80;;;;;;5030906;28;19943;-68
2021/08/28 07:05:11;;;;;;;;;;;16.90;93.80;;;;;;4997422;28;19921;-68
2021/08/28 07:07:41;;;;;;;;;;;16.90;93.70;;;;;;5013034;28;20016;-68
2021/08/28 07:10:07;;;;;;;;;;;16.90;93.50;;;;;;5013347;28;20007;-68
2021/08/28 07:12:33;;;;;;;;;;;16.80;93.40;;;;;;5031043;28;19917;-68
2021/08/28 07:14:58;;;;;;;;;;;16.70;93.30;;;;;;5031041;28;19917;-68
2021/08/28 07:17:47;;;;;;;;;;;16.70;93.40;;;;;;5012745;28;20344;-67
2021/08/28 07:20:13;;;;;;;;;;;16.70;93.40;;;;;;5013378;28;19917;-68
2021/08/28 07:22:39;;;;;;;;;;;16.60;93.40;;;;;;5013317;28;19949;-68
2021/08/28 07:25:18;;;;;;;;;;;16.70;93.60;;;;;;5013151;28;19917;-68
2021/08/28 07:27:44;;;;;;;;;;;16.80;93.70;;;;;;4996629;28;19944;-68
2021/08/28 07:30:36;;;;;;;;;;;16.80;93.60;;;;;;5030656;28;19944;-68
2021/08/28 07:33:02;;;;;;;;;;;17.00;93.80;;;;;;5029557;28;19917;-68
2021/08/28 07:35:28;;;;;;;;;;;17.10;93.60;;;;;;5012839;28;19925;-68
2021/08/28 07:37:54;;;;;;;;;;;17.20;93.60;;;;;;5012935;28;19921;-68
2021/08/28 07:40:22;;;;;;;;;;;17.30;93.60;;;;;;5030606;28;19917;-68
2021/08/28 07:42:49;;;;;;;;;;;17.40;93.60;;;;;;5012543;28;19995;-68
2021/08/28 07:45:15;;;;;;;;;;;17.60;93.60;;;;;;5013047;28;20059;-68
2021/08/28 07:47:59;;;;;;;;;;;17.70;93.50;;;;;;5012352;28;20006;-68
2021/08/28 07:50:25;;;;;;;;;;;17.80;93.10;;;;;;5013110;28;20381;-68
2021/08/28 07:52:51;;;;;;;;;;;17.90;92.80;;;;;;5016579;28;19920;-68
2021/08/28 07:55:17;;;;;;;;;;;17.80;92.90;;;;;;5015991;28;19924;-68
2021/08/28 07:57:43;;;;;;;;;;;17.80;92.50;;;;;;4999846;28;20381;-68
2021/08/28 08:00:10;;;;;;;;;;;17.70;92.30;;;;;;5016160;28;19924;-68
2021/08/28 08:02:39;;;;;;;;;;;17.50;92.40;;;;;;5034159;28;20336;-68
2021/08/28 08:05:08;;;;;;;;;;;17.60;92.70;;;;;;5016415;28;19948;-68
2021/08/28 08:07:59;;;;;;;;;;;17.60;92.60;;;;;;5033028;28;20293;-68
2021/08/28 08:10:45;;;;;;;;;;;17.70;92.50;;;;;;5033518;28;20415;-67
2021/08/28 08:13:33;;;;;;;;;;;17.70;92.50;;;;;;5033913;28;19924;-68
2021/08/28 08:16:17;;;;;;;;;;;17.80;92.50;;;;;;5018577;28;20407;-68
2021/08/28 08:19:03;;;;;;;;;;;17.90;92.70;;;;;;5015753;28;19924;-68
2021/08/28 08:21:52;;;;;;;;;;;18.00;92.60;;;;;;5033559;28;20412;-68
2021/08/28 08:24:47;;;;;;;;;;;18.00;92.20;;;;;;5024219;28;20030;-67
2021/08/28 08:27:13;;;;;;;;;;;18.10;92.30;;;;;;5033716;28;19939;-70
2021/08/28 08:30:00;;;;;;;;;;;20.40;93.00;;;;;;5015530;28;19996;-68
2021/08/28 08:32:53;;;;;;;;;;;18.30;92.30;;;;;;5029920;28;19921;-68
2021/08/28 08:35:23;;;;;;;;;;;18.40;92.10;;;;;;5015981;28;19970;-68
2021/08/28 08:37:48;;;;;;;;;;;18.30;91.40;;;;;;5015726;28;20004;-68
2021/08/28 08:40:14;;;;;;;;;;;18.10;91.10;;;;;;5014986;28;19913;-68
2021/08/28 08:42:45;;;;;;;;;;;18.00;91.20;;;;;;5015969;28;19922;-62
2021/08/28 08:45:11;;;;;;;;;;;17.80;91.30;;;;;;5015270;28;20386;-63
2021/08/28 08:47:37;;;;;;;;;;;17.80;91.50;;;;;;5032038;28;19924;-62
2021/08/28 08:50:03;;;;;;;;;;;17.80;91.70;;;;;;5015611;28;20344;-62
2021/08/28 08:52:41;;;;;;;;;;;17.90;91.80;;;;;;5015304;28;19917;-62
2021/08/28 08:55:35;;;;;;;;;;;17.90;91.50;;;;;;5025593;28;20063;-62
2021/08/28 08:58:02;;;;;;;;;;;17.80;91.20;;;;;;5015217;28;19917;-61
2021/08/28 09:00:29;;;;;;;;;;;17.70;91.30;;;;;;5015387;28;19913;-62
2021/08/28 09:03:13;;;;;;;;;;;17.60;91.40;;;;;;5032073;28;20411;-62
2021/08/28 09:05:39;;;;;;;;;;;17.50;91.30;;;;;;5015382;28;20007;-62
2021/08/28 09:08:04;;;;;;;;;;;17.50;91.40;;;;;;5014607;28;19913;-62
2021/08/28 09:10:30;;;;;;;;;;;17.50;91.50;;;;;;5032939;28;19929;-62
2021/08/28 09:13:10;;;;;;;;;;;17.50;91.40;;;;;;5032991;28;19917;-62
2021/08/28 09:15:40;;;;;;;;;;;17.50;91.40;;;;;;5032746;28;20221;-62
2021/08/28 09:18:07;;;;;;;;;;;17.40;91.40;;;;;;5032439;28;20016;-62
2021/08/28 09:20:32;;;;;;;;;;;17.40;91.60;;;;;;5032456;28;19913;-62
2021/08/28 09:23:12;;;;;;;;;;;17.50;91.70;;;;;;5032671;28;19924;-62
2021/08/28 09:25:38;;;;;;;;;;;17.60;91.80;;;;;;5032656;28;20000;-61
2021/08/28 09:28:04;;;;;;;;;;;17.80;92.10;;;;;;5031895;28;19921;-62
2021/08/28 09:30:34;;;;;;;;;;;18.00;92.10;;;;;;5032539;28;19960;-62
2021/08/28 09:33:00;;;;;;;;;;;18.10;91.70;;;;;;5032033;28;20004;-63
2021/08/28 09:35:30;;;;;;;;;;;18.20;91.60;;;;;;5032027;28;20256;-64
2021/08/28 09:37:57;;;;;;;;;;;18.10;91.20;;;;;;5013905;28;19921;-63
2021/08/28 09:40:28;;;;;;;;;;;18.00;91.10;;;;;;5014973;28;20273;-64
2021/08/28 09:42:55;;;;;;;;;;;17.90;91.10;;;;;;5032226;28;20297;-64
2021/08/28 09:45:21;;;;;;;;;;;17.90;91.00;;;;;;5032143;28;20280;-64
2021/08/28 09:47:47;;;;;;;;;;;17.80;91.10;;;;;;5032044;28;19953;-64
2021/08/28 09:50:22;;;;;;;;;;;17.80;91.40;;;;;;5031846;28;19972;-63
2021/08/28 09:52:49;;;;;;;;;;;18.10;92.40;;;;;;5032234;28;19917;-64
2021/08/28 09:55:14;;;;;;;;;;;18.60;92.70;;;;;;5031810;28;20384;-63
2021/08/28 09:57:41;;;;;;;;;;;19.00;91.80;;;;;;5030638;28;19913;-63
2021/08/28 10:00:07;;;;;;;;;;;19.10;91.30;;;;;;5014426;28;19917;-64
2021/08/28 10:02:37;;;;;;;;;;;19.10;90.80;;;;;;5031482;28;19924;-63
2021/08/28 10:05:03;;;;;;;;;;;19.00;90.80;;;;;;5030491;28;19925;-64
2021/08/28 10:07:32;;;;;;;;;;;18.90;90.40;;;;;;5028774;28;19925;-64
2021/08/28 10:09:59;;;;;;;;;;;18.70;89.90;;;;;;5030406;28;19929;-63
2021/08/28 10:12:24;;;;;;;;;;;18.40;89.60;;;;;;5011526;28;19943;-64
2021/08/28 10:14:50;;;;;;;;;;;18.20;90.10;;;;;;5011131;28;19917;-63
2021/08/28 10:17:16;;;;;;;;;;;18.10;90.30;;;;;;5028217;28;20078;-63
2021/08/28 10:19:42;;;;;;;;;;;18.00;90.30;;;;;;5031379;28;19923;-64
2021/08/28 10:22:08;;;;;;;;;;;18.00;90.40;;;;;;5031067;28;20381;-65
2021/08/28 10:24:35;;;;;;;;;;;17.90;90.30;;;;;;5031373;28;19917;-63
2021/08/28 10:27:00;;;;;;;;;;;17.80;90.40;;;;;;5013724;28;19917;-63
2021/08/28 10:29:26;;;;;;;;;;;17.90;90.80;;;;;;5030948;28;20385;-63
2021/08/28 10:31:51;;;;;;;;;;;18.20;91.80;;;;;;5031329;28;20401;-63
2021/08/28 10:34:17;;;;;;;;;;;18.40;91.20;;;;;;5030834;28;19940;-64
2021/08/28 10:36:43;;;;;;;;;;;18.50;90.70;;;;;;5030873;28;19925;-63
2021/08/28 10:39:09;;;;;;;;;;;18.40;90.50;;;;;;5030460;28;19917;-64
2021/08/28 10:41:35;;;;;;;;;;;18.40;90.30;;;;;;5028184;28;19940;-63
2021/08/28 10:44:01;;;;;;;;;;;18.30;90.20;;;;;;5012162;28;19921;-64
2021/08/28 10:46:28;;;;;;;;;;;18.20;90.30;;;;;;5012608;28;19924;-63
2021/08/28 10:49:30;;;;;;;;;;;18.30;90.60;;;;;;5019069;28;19944;-63
2021/08/28 10:51:56;;;;;;;;;;;18.30;90.60;;;;;;5013668;28;19945;-64
2021/08/28 10:54:29;;;;;;;;;;;18.40;90.50;;;;;;5030924;28;20345;-64
2021/08/28 10:56:56;;;;;;;;;;;18.60;90.90;;;;;;5031141;28;20297;-64
2021/08/28 10:59:24;;;;;;;;;;;18.80;90.90;;;;;;5031274;28;19924;-64
2021/08/28 11:01:50;;;;;;;;;;;18.90;90.40;;;;;;5030826;28;19917;-63
2021/08/28 11:04:34;;;;;;;;;;;18.90;90.40;;;;;;5031151;28;19970;-63
2021/08/28 11:07:18;;;;;;;;;;;19.10;90.50;;;;;;5030665;28;19917;-63
2021/08/28 11:10:02;;;;;;;;;;;19.20;90.00;;;;;;5031439;28;19924;-64
2021/08/28 11:12:28;;;;;;;;;;;19.10;89.10;;;;;;5030982;28;19924;-63
2021/08/28 11:14:53;;;;;;;;;;;18.90;88.60;;;;;;5013561;28;19995;-64
2021/08/28 11:17:35;;;;;;;;;;;18.70;88.00;;;;;;5030430;28;19943;-64
2021/08/28 11:20:01;;;;;;;;;;;18.50;88.30;;;;;;5013511;28;19917;-63
2021/08/28 11:22:33;;;;;;;;;;;18.30;88.40;;;;;;5030570;28;19917;-63
2021/08/28 11:25:00;;;;;;;;;;;18.10;88.90;;;;;;5030733;28;20015;-63
2021/08/28 11:27:38;;;;;;;;;;;18.10;89.50;;;;;;5015762;28;19971;-63
2021/08/28 11:30:04;;;;;;;;;;;18.10;89.20;;;;;;5034893;28;19928;-63
2021/08/28 11:32:30;;;;;;;;;;;18.10;89.60;;;;;;5034845;28;19924;-63
2021/08/28 11:34:57;;;;;;;;;;;18.20;89.80;;;;;;5034259;28;19917;-63
2021/08/28 11:37:25;;;;;;;;;;;18.20;90.20;;;;;;5034569;28;19932;-64
2021/08/28 11:39:51;;;;;;;;;;;18.30;90.10;;;;;;5034393;28;20381;-63
2021/08/28 11:42:17;;;;;;;;;;;18.50;90.10;;;;;;5034487;28;19917;-64
2021/08/28 11:44:49;;;;;;;;;;;18.50;90.10;;;;;;5033301;28;19920;-63
2021/08/28 11:47:15;;;;;;;;;;;18.60;89.60;;;;;;5034174;28;19924;-63
2021/08/28 11:49:41;;;;;;;;;;;18.60;89.50;;;;;;5034306;28;19917;-63
2021/08/28 11:52:07;;;;;;;;;;;18.50;89.40;;;;;;5033976;28;19963;-63
2021/08/28 11:54:32;;;;;;;;;;;18.60;89.70;;;;;;5034411;28;20377;-64
2021/08/28 11:56:58;;;;;;;;;;;18.60;90.00;;;;;;5034180;28;19958;-63
2021/08/28 11:59:53;;;;;;;;;;;18.70;89.70;;;;;;5033880;28;19972;-63
2021/08/28 12:02:19;;;;;;;;;;;18.60;88.70;;;;;;5029477;28;19933;-64
2021/08/28 12:04:46;;;;;;;;;;;18.40;88.50;;;;;;5033812;28;19940;-63
2021/08/28 12:07:11;;;;;;;;;;;18.20;88.30;;;;;;5016325;28;20381;-63
2021/08/28 12:09:37;;;;;;;;;;;18.10;89.00;;;;;;5016139;28;19992;-64
2021/08/28 12:12:03;;;;;;;;;;;18.10;89.30;;;;;;5034057;28;19928;-64
2021/08/28 12:14:30;;;;;;;;;;;18.10;89.70;;;;;;5034146;28;20296;-64
2021/08/28 12:16:55;;;;;;;;;;;18.10;90.00;;;;;;5033349;28;20377;-63
2021/08/28 12:19:22;;;;;;;;;;;18.20;90.10;;;;;;5033962;28;20004;-64
2021/08/28 12:21:52;;;;;;;;;;;18.30;90.00;;;;;;5033865;28;19913;-64
2021/08/28 12:24:18;;;;;;;;;;;18.40;90.00;;;;;;5033419;28;19979;-64
2021/08/28 12:26:46;;;;;;;;;;;18.60;90.10;;;;;;5033674;28;20289;-64
2021/08/28 12:29:19;;;;;;;;;;;18.70;90.10;;;;;;5033362;28;20296;-63
2021/08/28 12:31:51;;;;;;;;;;;18.70;89.70;;;;;;5033971;28;19917;-64
2021/08/28 12:34:20;;;;;;;;;;;18.70;89.00;;;;;;5033422;28;19924;-64
2021/08/28 12:36:46;;;;;;;;;;;18.60;88.70;;;;;;5033330;28;19952;-64
2021/08/28 12:39:12;;;;;;;;;;;18.60;89.60;;;;;;5032205;28;19917;-64
2021/08/28 12:41:38;;;;;;;;;;;18.60;90.00;;;;;;5033633;28;20035;-64
2021/08/28 12:44:04;;;;;;;;;;;18.70;89.90;;;;;;5033426;28;19953;-64
2021/08/28 12:46:29;;;;;;;;;;;18.80;89.60;;;;;;5033119;28;19917;-64
2021/08/28 12:49:14;;;;;;;;;;;18.90;89.50;;;;;;5032798;28;19928;-64
2021/08/28 12:51:57;;;;;;;;;;;18.80;89.80;;;;;;5033360;28;19925;-64
2021/08/28 12:54:30;;;;;;;;;;;18.80;88.80;;;;;;5033113;28;19966;-64
2021/08/28 12:57:01;;;;;;;;;;;18.80;88.60;;;;;;5033128;28;20412;-64
2021/08/28 12:59:27;;;;;;;;;;;18.70;88.90;;;;;;5032803;28;19917;-59
2021/08/28 13:01:54;;;;;;;;;;;18.80;89.10;;;;;;5032309;28;20000;-59
2021/08/28 13:04:20;;;;;;;;;;;18.80;89.30;;;;;;4998415;28;19917;-59
2021/08/28 13:07:24;;;;;;;;;;;18.90;89.30;;;;;;4998604;28;20004;-60
2021/08/28 13:09:52;;;;;;;;;;;19.00;88.90;;;;;;4955495;28;20430;-59
2021/08/28 13:12:18;;;;;;;;;;;19.10;87.80;;;;;;4971679;28;19918;-59
2021/08/28 13:14:53;;;;;;;;;;;19.00;87.70;;;;;;5000134;28;19914;-59
2021/08/28 13:17:23;;;;;;;;;;;18.90;87.80;;;;;;5014804;28;20288;-59
2021/08/28 13:19:58;;;;;;;;;;;18.80;88.30;;;;;;5014053;28;19917;-59
2021/08/28 13:22:24;;;;;;;;;;;19.50;88.40;;;;;;5014517;28;19925;-59
2021/08/28 13:24:50;;;;;;;;;;;20.00;88.80;;;;;;5014671;28;20500;-59
2021/08/28 13:27:15;;;;;;;;;;;18.70;87.90;;;;;;4997467;28;19925;-59
2021/08/28 13:29:41;;;;;;;;;;;18.70;88.00;;;;;;5014311;28;19928;-59
2021/08/28 13:32:15;;;;;;;;;;;18.60;88.20;;;;;;5014435;28;19949;-60
2021/08/28 13:34:42;;;;;;;;;;;18.60;87.90;;;;;;5014797;28;20413;-59
2021/08/28 13:37:10;;;;;;;;;;;18.50;87.90;;;;;;5014352;28;20361;-59
2021/08/28 13:39:36;;;;;;;;;;;18.50;87.90;;;;;;5013966;28;19917;-59
2021/08/28 13:42:02;;;;;;;;;;;18.50;88.50;;;;;;5014493;28;19917;-60
2021/08/28 13:44:27;;;;;;;;;;;18.60;88.60;;;;;;5031729;28;20322;-59
2021/08/28 13:46:53;;;;;;;;;;;18.70;88.90;;;;;;5014352;28;20300;-59
2021/08/28 13:49:19;;;;;;;;;;;18.80;88.10;;;;;;5031717;28;19948;-59
2021/08/28 13:51:44;;;;;;;;;;;18.80;88.10;;;;;;5013825;28;19917;-60
2021/08/28 13:54:10;;;;;;;;;;;18.90;88.90;;;;;;4997947;28;19921;-59
2021/08/28 13:56:36;;;;;;;;;;;20.00;89.20;;;;;;4997521;28;19929;-59
2021/08/28 13:59:01;;;;;;;;;;;19.10;88.10;;;;;;5013503;28;20294;-59
2021/08/28 14:01:27;;;;;;;;;;;19.10;88.40;;;;;;5030767;28;19917;-59
2021/08/28 14:03:52;;;;;;;;;;;19.30;88.50;;;;;;5014264;28;20297;-59
2021/08/28 14:06:18;;;;;;;;;;;19.50;88.60;;;;;;5031562;28;20384;-59
2021/08/28 14:08:44;;;;;;;;;;;19.60;87.20;;;;;;5013927;28;19970;-59
2021/08/28 14:11:09;;;;;;;;;;;19.60;87.00;;;;;;5031385;28;19957;-59
2021/08/28 14:13:35;;;;;;;;;;;19.50;86.00;;;;;;5030273;28;20400;-59
2021/08/28 14:16:00;;;;;;;;;;;19.40;85.10;;;;;;5014072;28;19924;-59
2021/08/28 14:18:28;;;;;;;;;;;19.10;84.60;;;;;;5012704;28;19968;-59
2021/08/28 14:20:54;;;;;;;;;;;18.80;85.10;;;;;;4997881;28;19956;-59
2021/08/28 14:23:20;;;;;;;;;;;18.70;85.60;;;;;;5013334;28;19963;-59
2021/08/28 14:25:46;;;;;;;;;;;18.60;85.70;;;;;;4997761;28;19986;-60
2021/08/28 14:28:11;;;;;;;;;;;18.40;86.20;;;;;;5013614;28;19921;-59
2021/08/28 14:30:37;;;;;;;;;;;19.20;86.30;;;;;;5029667;28;19921;-59
2021/08/28 14:33:02;;;;;;;;;;;18.20;86.10;;;;;;5013669;28;19971;-59
2021/08/28 14:35:28;;;;;;;;;;;18.10;86.20;;;;;;5013744;28;20043;-59